createdAt,value
2023-03-17T00:02:05.598Z,100848.59
2023-03-17T00:04:33.393Z,100854.25
2023-03-17T00:07:03.284Z,100849.31
2023-03-17T00:09:30.118Z,100856.53
2023-03-17T00:11:56.996Z,100853.13
2023-03-17T00:14:24.312Z,100861.63
2023-03-17T00:16:53.713Z,100853.28
2023-03-17T00:19:33.664Z,100856.69
2023-03-17T00:22:02.804Z,100848.03
2023-03-17T00:24:30.146Z,100842.63
2023-03-17T00:26:59.645Z,100839.81
2023-03-17T00:29:26.797Z,100846.59
2023-03-17T00:31:55.304Z,100834.28
2023-03-17T00:34:22.264Z,100832.44
2023-03-17T00:36:51.144Z,100837.38
2023-03-17T00:39:18.606Z,100829.88
2023-03-17T00:41:49.024Z,100829.31
2023-03-17T00:44:15.910Z,100820.25
2023-03-17T00:46:42.809Z,100820.50
2023-03-17T00:49:21.080Z,100819.38
2023-03-17T00:51:48.711Z,100821.94
2023-03-17T00:54:19.478Z,100822.78
2023-03-17T00:56:48.075Z,100825.63
2023-03-17T00:59:28.100Z,100815.41
2023-03-17T01:01:56.146Z,100817.81
2023-03-17T01:04:23.937Z,100807.06
2023-03-17T01:06:59.247Z,100794.28
2023-03-17T01:09:27.718Z,100795.72
2023-03-17T01:11:55.868Z,100798.97
2023-03-17T01:14:26.026Z,100799.69
2023-03-17T01:16:55.142Z,100794.44
2023-03-17T01:19:22.343Z,100787.63
2023-03-17T01:21:49.241Z,100787.06
2023-03-17T01:24:18.672Z,100791.31
2023-03-17T01:26:45.885Z,100793.44
2023-03-17T01:29:13.771Z,100805.50
2023-03-17T01:31:41.154Z,100799.81
2023-03-17T01:34:08.056Z,100799.53
2023-03-17T01:36:35.631Z,100803.22
2023-03-17T01:39:05.217Z,100796.56
2023-03-17T01:41:40.133Z,100786.91
2023-03-17T01:44:14.465Z,100803.78
2023-03-17T01:46:45.375Z,100801.38
2023-03-17T01:49:27.206Z,100806.63
2023-03-17T01:51:58.946Z,100800.66
2023-03-17T01:54:34.997Z,100799.38
2023-03-17T01:57:46.948Z,100797.94
2023-03-17T02:00:20.141Z,100795.56
2023-03-17T02:02:58.184Z,100785.63
2023-03-17T02:05:29.905Z,100788.88
2023-03-17T02:07:59.075Z,100792.44
2023-03-17T02:10:30.473Z,100784.22
2023-03-17T02:13:03.823Z,100783.06
2023-03-17T02:15:52.189Z,100781.94
2023-03-17T02:18:21.807Z,100781.09
2023-03-17T02:20:48.577Z,100780.81
2023-03-17T02:23:24.773Z,100777.28
2023-03-17T02:25:53.902Z,100777.28
2023-03-17T02:28:28.324Z,100764.66
2023-03-17T02:30:55.307Z,100777.97
2023-03-17T02:33:24.330Z,100774.31
2023-03-17T02:35:53.697Z,100768.50
2023-03-17T02:38:20.692Z,100759.28
2023-03-17T02:40:50.233Z,100767.94
2023-03-17T02:43:17.488Z,100778.84
2023-03-17T02:45:44.398Z,100768.91
2023-03-17T02:48:11.966Z,100751.91
2023-03-17T02:50:41.465Z,100760.53
2023-03-17T02:53:13.036Z,100748.09
2023-03-17T02:55:43.657Z,100759.28
2023-03-17T02:58:10.581Z,100761.38
2023-03-17T03:00:38.804Z,100759.13
2023-03-17T03:03:07.884Z,100746.78
2023-03-17T03:05:35.374Z,100743.38
2023-03-17T03:08:05.246Z,100745.94
2023-03-17T03:10:32.675Z,100735.19
2023-03-17T03:12:59.645Z,100757.16
2023-03-17T03:15:31.071Z,100758.97
2023-03-17T03:17:57.970Z,100755.72
2023-03-17T03:20:27.959Z,100772.28
2023-03-17T03:22:57.482Z,100776.13
2023-03-17T03:25:24.312Z,100775.44
2023-03-17T03:27:51.626Z,100778.13
2023-03-17T03:30:19.256Z,100763.81
2023-03-17T03:32:48.395Z,100762.69
2023-03-17T03:35:15.428Z,100753.59
2023-03-17T03:37:45.383Z,100748.50
2023-03-17T03:40:15.120Z,100749.22
2023-03-17T03:42:44.496Z,100750.22
2023-03-17T03:45:11.670Z,100756.44
2023-03-17T03:47:38.766Z,100744.25
2023-03-17T03:50:06.802Z,100755.31
2023-03-17T03:52:33.763Z,100750.78
2023-03-17T03:55:00.952Z,100755.31
2023-03-17T03:57:30.850Z,100752.63
2023-03-17T04:00:03.021Z,100754.03
2023-03-17T04:02:30.886Z,100752.47
2023-03-17T04:05:02.930Z,100753.31
2023-03-17T04:07:30.088Z,100747.06
2023-03-17T04:09:59.773Z,100742.25
2023-03-17T04:12:29.143Z,100729.78
2023-03-17T04:14:58.205Z,100719.59
2023-03-17T04:17:27.396Z,100717.16
2023-03-17T04:19:57.270Z,100714.88
2023-03-17T04:22:24.593Z,100706.22
2023-03-17T04:24:51.502Z,100709.22
2023-03-17T04:27:23.145Z,100691.47
2023-03-17T04:29:50.049Z,100681.00
2023-03-17T04:32:17.105Z,100684.13
2023-03-17T04:34:44.052Z,100672.81
2023-03-17T04:37:12.335Z,100672.94
2023-03-17T04:39:42.045Z,100669.69
2023-03-17T04:42:09.080Z,100680.88
2023-03-17T04:44:36.505Z,100691.22
2023-03-17T04:47:03.524Z,100696.91
2023-03-17T04:49:32.897Z,100692.63
2023-03-17T04:52:01.952Z,100697.44
2023-03-17T04:54:28.811Z,100692.91
2023-03-17T04:56:56.163Z,100696.19
2023-03-17T04:59:25.590Z,100702.66
2023-03-17T05:01:54.534Z,100705.22
2023-03-17T05:04:31.213Z,100703.25
2023-03-17T05:06:59.104Z,100700.88
2023-03-17T05:09:29.022Z,100694.53
2023-03-17T05:11:58.501Z,100699.19
2023-03-17T05:14:27.824Z,100689.94
2023-03-17T05:16:57.081Z,100692.31
2023-03-17T05:19:26.907Z,100689.00
2023-03-17T05:21:53.868Z,100692.59
2023-03-17T05:24:23.206Z,100686.41
2023-03-17T05:26:50.070Z,100687.53
2023-03-17T05:29:17.259Z,100689.44
2023-03-17T05:31:44.510Z,100697.09
2023-03-17T05:34:11.361Z,100692.00
2023-03-17T05:36:43.517Z,100692.56
2023-03-17T05:39:14.344Z,100681.00
2023-03-17T05:41:41.499Z,100680.91
2023-03-17T05:44:08.789Z,100678.81
2023-03-17T05:46:35.865Z,100675.53
2023-03-17T05:49:06.211Z,100674.84
2023-03-17T05:51:34.770Z,100666.75
2023-03-17T05:54:05.223Z,100662.84
2023-03-17T05:56:33.719Z,100659.25
2023-03-17T05:59:01.653Z,100661.66
2023-03-17T06:01:32.427Z,100667.31
2023-03-17T06:04:01.896Z,100654.91
2023-03-17T06:06:28.989Z,100654.94
2023-03-17T06:08:58.067Z,100660.03
2023-03-17T06:11:24.927Z,100667.19
2023-03-17T06:13:51.834Z,100660.25
2023-03-17T06:16:19.662Z,100666.56
2023-03-17T06:18:49.737Z,100657.25
2023-03-17T06:21:16.919Z,100654.56
2023-03-17T06:23:48.596Z,100644.66
2023-03-17T06:26:17.934Z,100644.22
2023-03-17T06:28:44.948Z,100637.16
2023-03-17T06:31:14.302Z,100635.75
2023-03-17T06:33:41.686Z,100636.19
2023-03-17T06:36:08.837Z,100638.91
2023-03-17T06:38:35.959Z,100653.06
2023-03-17T06:41:03.421Z,100638.06
2023-03-17T06:43:32.665Z,100640.97
2023-03-17T06:45:59.543Z,100643.59
2023-03-17T06:48:26.433Z,100642.13
2023-03-17T06:50:53.262Z,100642.88
2023-03-17T06:53:20.707Z,100648.75
2023-03-17T06:55:48.277Z,100642.66
2023-03-17T06:58:16.008Z,100643.31
2023-03-17T07:00:47.166Z,100657.72
2023-03-17T07:03:14.791Z,100646.53
2023-03-17T07:05:42.185Z,100656.00
2023-03-17T07:08:09.294Z,100656.91
2023-03-17T07:10:36.700Z,100646.69
2023-03-17T07:13:07.731Z,100647.22
2023-03-17T07:15:35.958Z,100645.34
2023-03-17T07:18:03.991Z,100656.25
2023-03-17T07:20:33.854Z,100645.63
2023-03-17T07:23:03.415Z,100645.09
2023-03-17T07:25:32.837Z,100639.56
2023-03-17T07:27:59.928Z,100639.75
2023-03-17T07:30:29.133Z,100647.34
2023-03-17T07:32:57.430Z,100641.97
2023-03-17T07:35:27.762Z,100646.50
2023-03-17T07:37:55.007Z,100645.06
2023-03-17T07:40:24.927Z,100652.31
2023-03-17T07:42:55.284Z,100648.13
2023-03-17T07:45:24.831Z,100650.91
2023-03-17T07:47:54.349Z,100657.13
2023-03-17T07:50:21.256Z,100649.47
2023-03-17T07:52:52.728Z,100649.06
2023-03-17T07:55:21.885Z,100640.88
2023-03-17T07:57:48.877Z,100646.34
2023-03-17T08:00:17.220Z,100643.38
2023-03-17T08:02:44.524Z,100619.28
2023-03-17T08:05:11.593Z,100622.50
2023-03-17T08:07:38.904Z,100618.78
2023-03-17T08:10:11.558Z,100619.06
2023-03-17T08:12:41.879Z,100627.53
2023-03-17T08:15:12.279Z,100618.28
2023-03-17T08:17:40.111Z,100617.22
2023-03-17T08:20:08.321Z,100609.66
2023-03-17T08:22:37.895Z,100609.84
2023-03-17T08:25:09.530Z,100624.75
2023-03-17T08:27:41.966Z,100625.16
2023-03-17T08:30:10.008Z,100619.97
2023-03-17T08:32:39.494Z,100626.13
2023-03-17T08:35:06.979Z,100612.63
2023-03-17T08:37:33.988Z,100609.88
2023-03-17T08:40:01.253Z,100597.66
2023-03-17T08:42:28.195Z,100589.00
2023-03-17T08:44:55.314Z,100590.00
2023-03-17T08:47:27.422Z,100592.66
2023-03-17T08:49:56.186Z,100603.34
2023-03-17T08:52:26.092Z,100606.38
2023-03-17T08:54:58.010Z,100603.03
2023-03-17T08:57:29.653Z,100617.41
2023-03-17T08:59:58.979Z,100628.72
2023-03-17T09:02:25.892Z,100623.06
2023-03-17T09:04:52.898Z,100614.78
2023-03-17T09:07:20.010Z,100611.88
2023-03-17T09:09:47.671Z,100618.22
2023-03-17T09:12:17.112Z,100616.78
2023-03-17T09:14:45.202Z,100619.25
2023-03-17T09:17:14.396Z,100623.28
2023-03-17T09:19:41.678Z,100613.88
2023-03-17T09:22:14.760Z,100617.38
2023-03-17T09:24:41.986Z,100602.97
2023-03-17T09:27:15.044Z,100611.50
2023-03-17T09:29:44.420Z,100605.78
2023-03-17T09:32:11.410Z,100599.66
2023-03-17T09:34:38.487Z,100607.47
2023-03-17T09:37:09.776Z,100609.00
2023-03-17T09:39:36.686Z,100602.91
2023-03-17T09:42:33.328Z,100606.50
2023-03-17T09:45:35.173Z,100612.59
2023-03-17T09:48:25.178Z,100604.81
2023-03-17T09:50:58.996Z,100600.72
2023-03-17T09:53:54.132Z,100607.50
2023-03-17T09:56:24.703Z,100601.06
2023-03-17T09:58:57.989Z,100599.88
2023-03-17T10:01:25.373Z,100591.31
2023-03-17T10:03:55.777Z,100590.38
2023-03-17T10:06:36.300Z,100586.75
2023-03-17T10:09:13.905Z,100571.06
2023-03-17T10:11:47.087Z,100572.34
2023-03-17T10:14:32.038Z,100575.78
2023-03-17T10:17:09.264Z,100574.06
2023-03-17T10:19:48.617Z,100574.25
2023-03-17T10:22:31.153Z,100567.38
2023-03-17T10:25:15.656Z,100555.16
2023-03-17T10:27:53.173Z,100554.84
2023-03-17T10:30:22.666Z,100550.75
2023-03-17T10:32:52.430Z,100554.63
2023-03-17T10:35:22.079Z,100548.72
2023-03-17T10:37:49.323Z,100560.53
2023-03-17T10:40:31.088Z,100553.13
2023-03-17T10:43:08.646Z,100537.13
2023-03-17T10:45:43.290Z,100544.50
2023-03-17T10:48:19.024Z,100552.72
2023-03-17T10:50:49.355Z,100545.13
2023-03-17T10:53:29.249Z,100532.28
2023-03-17T10:56:09.430Z,100535.03
2023-03-17T10:58:50.121Z,100535.59
2023-03-17T11:01:43.408Z,100530.19
2023-03-17T11:04:32.793Z,100542.06
2023-03-17T11:07:10.321Z,100547.56
2023-03-17T11:09:41.123Z,100544.16
2023-03-17T11:12:28.488Z,100546.38
2023-03-17T11:15:04.777Z,100554.00
2023-03-17T11:17:58.618Z,100546.72
2023-03-17T11:20:47.129Z,100546.13
2023-03-17T11:23:26.532Z,100526.88
2023-03-17T11:26:33.966Z,100526.34
2023-03-17T11:29:43.771Z,100514.19
2023-03-17T11:32:30.298Z,100521.59
2023-03-17T11:35:41.335Z,100512.34
2023-03-17T11:38:26.375Z,100508.66
2023-03-17T11:41:15.050Z,100505.44
2023-03-17T11:44:09.001Z,100498.63
2023-03-17T11:46:48.912Z,100514.72
2023-03-17T11:49:36.964Z,100506.56
2023-03-17T11:52:10.971Z,100497.78
2023-03-17T11:54:58.145Z,100504.06
2023-03-17T11:57:37.437Z,100499.25
2023-03-17T12:00:16.621Z,100494.75
2023-03-17T12:03:00.765Z,100501.41
2023-03-17T12:05:33.696Z,100479.69
2023-03-17T12:08:39.670Z,100473.97
2023-03-17T12:11:15.346Z,100473.66
2023-03-17T12:13:53.933Z,100471.44
2023-03-17T12:16:26.438Z,100480.69
2023-03-17T12:19:10.016Z,100485.09
2023-03-17T12:21:39.631Z,100466.94
2023-03-17T12:24:47.894Z,100465.88
2023-03-17T12:27:29.156Z,100463.09
2023-03-17T12:30:17.535Z,100460.19
2023-03-17T12:32:50.174Z,100464.94
2023-03-17T12:35:35.016Z,100458.59
2023-03-17T12:38:18.907Z,100472.00
2023-03-17T12:40:51.293Z,100465.41
2023-03-17T12:43:39.216Z,100456.59
2023-03-17T12:46:55.808Z,100446.47
2023-03-17T12:49:47.401Z,100441.22
2023-03-17T12:53:14.374Z,100429.13
2023-03-17T12:55:42.507Z,100453.34
2023-03-17T12:58:45.653Z,100446.69
2023-03-17T13:01:29.865Z,100438.97
2023-03-17T13:04:18.423Z,100443.78
2023-03-17T13:07:06.278Z,100456.94
2023-03-17T13:09:37.757Z,100440.69
2023-03-17T13:12:06.861Z,100445.97
2023-03-17T13:14:39.506Z,100459.28
2023-03-17T13:17:29.152Z,100452.91
2023-03-17T13:20:08.065Z,100444.94
2023-03-17T13:22:38.332Z,100440.75
2023-03-17T13:25:13.447Z,100451.63
2023-03-17T13:27:44.909Z,100443.00
2023-03-17T13:30:25.780Z,100439.09
2023-03-17T13:33:09.912Z,100442.88
2023-03-17T13:36:02.457Z,100441.19
2023-03-17T13:38:35.393Z,100430.72
2023-03-17T13:41:37.779Z,100434.78
2023-03-17T13:44:29.021Z,100445.47
2023-03-17T13:47:11.965Z,100446.00
2023-03-17T13:49:50.950Z,100436.41
2023-03-17T13:52:28.259Z,100429.13
2023-03-17T13:55:22.345Z,100441.34
2023-03-17T13:58:11.854Z,100443.81
2023-03-17T14:00:48.962Z,100436.28
2023-03-17T14:03:20.329Z,100426.81
2023-03-17T14:05:53.431Z,100434.78
2023-03-17T14:08:39.414Z,100433.50
2023-03-17T14:11:20.310Z,100423.16
2023-03-17T14:14:36.659Z,100425.97
2023-03-17T14:17:34.267Z,100427.75
2023-03-17T14:20:08.503Z,100413.50
2023-03-17T14:22:45.800Z,100424.13
2023-03-17T14:25:42.852Z,100420.41
2023-03-17T14:28:17.622Z,100435.16
2023-03-17T14:31:00.447Z,100418.16
2023-03-17T14:33:40.829Z,100418.44
2023-03-17T14:36:14.219Z,100406.84
2023-03-17T14:38:49.385Z,100406.13
2023-03-17T14:41:23.342Z,100405.16
2023-03-17T14:43:52.654Z,100405.16
2023-03-17T14:46:34.630Z,100406.81
2023-03-17T14:49:20.457Z,100403.69
2023-03-17T14:51:53.553Z,100412.56
2023-03-17T14:54:33.715Z,100410.63
2023-03-17T14:57:15.646Z,100418.44
2023-03-17T15:00:21.851Z,100411.19
2023-03-17T15:03:05.709Z,100420.97
2023-03-17T15:05:46.350Z,100416.06
2023-03-17T15:08:41.251Z,100409.88
2023-03-17T15:11:18.071Z,100414.59
2023-03-17T15:13:49.783Z,100410.34
2023-03-17T15:16:29.985Z,100417.94
2023-03-17T15:19:25.108Z,100416.03
2023-03-17T15:21:59.661Z,100413.19
2023-03-17T15:24:44.351Z,100411.28
2023-03-17T15:27:18.423Z,100420.69
2023-03-17T15:29:46.731Z,100416.03
2023-03-17T15:32:22.197Z,100416.38
2023-03-17T15:34:52.003Z,100415.94
2023-03-17T15:37:23.535Z,100420.91
2023-03-17T15:39:55.050Z,100415.16
2023-03-17T15:42:28.571Z,100413.28
2023-03-17T15:44:56.185Z,100406.69
2023-03-17T15:47:28.200Z,100403.28
2023-03-17T15:50:10.276Z,100407.59
2023-03-17T15:52:39.523Z,100395.06
2023-03-17T15:55:22.103Z,100404.50
2023-03-17T15:57:55.204Z,100397.56
2023-03-17T16:00:29.434Z,100408.97
2023-03-17T16:03:02.663Z,100407.25
2023-03-17T16:05:32.825Z,100409.88
2023-03-17T16:08:02.419Z,100405.84
2023-03-17T16:10:35.522Z,100398.13
2023-03-17T16:13:05.467Z,100380.06
2023-03-17T16:15:38.452Z,100380.00
2023-03-17T16:18:12.624Z,100364.75
2023-03-17T16:20:52.786Z,100352.88
2023-03-17T16:23:26.305Z,100348.84
2023-03-17T16:25:59.321Z,100334.88
2023-03-17T16:28:33.155Z,100318.97
2023-03-17T16:31:02.000Z,100323.97
2023-03-17T16:33:36.293Z,100348.16
2023-03-17T16:36:05.859Z,100362.53
2023-03-17T16:38:34.464Z,100360.19
2023-03-17T16:41:24.071Z,100363.56
2023-03-17T16:44:02.181Z,100360.66
2023-03-17T16:46:35.108Z,100364.94
2023-03-17T16:49:04.017Z,100364.84
2023-03-17T16:51:31.029Z,100377.13
2023-03-17T16:53:57.981Z,100375.72
2023-03-17T16:56:27.802Z,100382.88
2023-03-17T16:58:56.856Z,100397.53
2023-03-17T17:01:27.271Z,100406.69
2023-03-17T17:03:55.353Z,100408.81
2023-03-17T17:06:25.070Z,100416.81
2023-03-17T17:08:52.569Z,100420.09
2023-03-17T17:11:20.815Z,100422.38
2023-03-17T17:13:49.283Z,100418.09
2023-03-17T17:16:39.904Z,100420.31
2023-03-17T17:19:19.222Z,100411.50
2023-03-17T17:21:46.116Z,100414.94
2023-03-17T17:24:17.228Z,100409.88
2023-03-17T17:26:48.861Z,100416.66
2023-03-17T17:29:15.887Z,100407.22
2023-03-17T17:31:42.788Z,100413.53
2023-03-17T17:34:09.881Z,100404.72
2023-03-17T17:36:38.880Z,100398.63
2023-03-17T17:39:14.238Z,100399.06
2023-03-17T17:41:44.174Z,100401.59
2023-03-17T17:44:13.347Z,100403.28
2023-03-17T17:46:40.338Z,100401.13
2023-03-17T17:49:07.537Z,100400.28
2023-03-17T17:51:38.811Z,100405.75
2023-03-17T17:54:06.266Z,100405.75
2023-03-17T17:56:36.627Z,100410.56
2023-03-17T17:59:06.465Z,100408.03
2023-03-17T18:01:35.826Z,100413.72
2023-03-17T18:04:02.787Z,100416.22
2023-03-17T18:06:29.749Z,100420.81
2023-03-17T18:08:59.734Z,100421.03
2023-03-17T18:11:26.597Z,100421.06
2023-03-17T18:13:53.542Z,100436.81
2023-03-17T18:16:20.953Z,100426.78
2023-03-17T18:18:47.919Z,100435.59
2023-03-17T18:21:18.376Z,100421.69
2023-03-17T18:23:48.819Z,100420.03
2023-03-17T18:26:17.842Z,100425.50
2023-03-17T18:28:45.080Z,100435.53
2023-03-17T18:31:27.463Z,100449.81
2023-03-17T18:34:07.446Z,100442.72
2023-03-17T18:36:35.053Z,100434.28
2023-03-17T18:39:04.856Z,100425.50
2023-03-17T18:41:36.604Z,100438.91
2023-03-17T18:44:04.354Z,100437.16
2023-03-17T18:46:31.499Z,100433.78
2023-03-17T18:48:58.932Z,100427.09
2023-03-17T18:51:25.924Z,100442.00
2023-03-17T18:53:52.810Z,100433.16
2023-03-17T18:56:21.512Z,100441.56
2023-03-17T18:58:48.647Z,100438.47
2023-03-17T19:01:20.669Z,100441.38
2023-03-17T19:03:47.558Z,100432.97
2023-03-17T19:06:18.470Z,100434.66
2023-03-17T19:08:51.073Z,100436.69
2023-03-17T19:11:21.704Z,100437.53
2023-03-17T19:13:49.052Z,100436.00
2023-03-17T19:16:18.726Z,100429.03
2023-03-17T19:18:47.237Z,100428.19
2023-03-17T19:21:14.139Z,100424.41
2023-03-17T19:23:41.364Z,100423.91
2023-03-17T19:26:12.823Z,100419.78
2023-03-17T19:28:39.784Z,100412.91
2023-03-17T19:31:07.447Z,100413.94
2023-03-17T19:33:34.332Z,100415.75
2023-03-17T19:36:09.510Z,100410.47
2023-03-17T19:38:37.410Z,100393.47
2023-03-17T19:41:06.178Z,100398.84
2023-03-17T19:43:40.917Z,100394.47
2023-03-17T19:46:11.765Z,100398.00
2023-03-17T19:48:42.217Z,100391.03
2023-03-17T19:51:10.124Z,100394.03
2023-03-17T19:53:38.097Z,100388.84
2023-03-17T19:56:06.650Z,100382.00
2023-03-17T19:58:33.985Z,100384.28
2023-03-17T20:01:01.496Z,100377.53
2023-03-17T20:03:28.621Z,100369.66
2023-03-17T20:05:58.541Z,100376.31
2023-03-17T20:08:25.472Z,100381.03
2023-03-17T20:10:54.135Z,100370.88
2023-03-17T20:13:24.441Z,100374.84
2023-03-17T20:15:54.339Z,100367.59
2023-03-17T20:18:23.577Z,100375.78
2023-03-17T20:21:00.383Z,100367.84
2023-03-17T20:23:29.973Z,100363.84
2023-03-17T20:26:02.919Z,100364.47
2023-03-17T20:28:32.936Z,100363.59
2023-03-17T20:31:02.948Z,100361.91
2023-03-17T20:33:31.853Z,100367.75
2023-03-17T20:35:59.465Z,100385.56
2023-03-17T20:38:31.690Z,100400.16
2023-03-17T20:41:11.425Z,100393.09
2023-03-17T20:43:38.657Z,100380.59
2023-03-17T20:46:09.794Z,100388.91
2023-03-17T20:48:40.092Z,100372.38
2023-03-17T20:51:10.877Z,100383.53
2023-03-17T20:53:39.153Z,100377.59
2023-03-17T20:56:06.530Z,100378.59
2023-03-17T20:58:34.704Z,100375.59
2023-03-17T21:01:03.186Z,100376.31
2023-03-17T21:03:30.333Z,100383.00
2023-03-17T21:05:57.307Z,100391.34
2023-03-17T21:08:25.075Z,100368.91
2023-03-17T21:10:52.857Z,100370.34
2023-03-17T21:13:20.430Z,100361.09
2023-03-17T21:15:48.601Z,100359.03
2023-03-17T21:18:16.970Z,100373.69
2023-03-17T21:20:46.061Z,100376.09
2023-03-17T21:23:13.300Z,100380.25
2023-03-17T21:25:44.050Z,100373.53
2023-03-17T21:28:22.183Z,100373.16
2023-03-17T21:30:50.351Z,100369.00
2023-03-17T21:33:18.381Z,100382.00
2023-03-17T21:35:48.661Z,100380.00
2023-03-17T21:38:17.003Z,100379.47
2023-03-17T21:40:45.036Z,100383.56
2023-03-17T21:43:13.709Z,100375.25
2023-03-17T21:45:45.952Z,100365.44
2023-03-17T21:48:12.842Z,100363.16
2023-03-17T21:50:42.065Z,100373.63
2023-03-17T21:53:11.309Z,100361.38
2023-03-17T21:55:38.388Z,100352.97
2023-03-17T21:58:08.127Z,100352.66
2023-03-17T22:00:45.068Z,100357.75
2023-03-17T22:03:12.694Z,100349.38
2023-03-17T22:05:42.323Z,100353.16
2023-03-17T22:08:09.293Z,100363.41
2023-03-17T22:10:39.716Z,100361.34
2023-03-17T22:13:08.822Z,100376.97
2023-03-17T22:15:36.102Z,100389.97
2023-03-17T22:18:02.919Z,100387.03
2023-03-17T22:20:30.154Z,100392.50
2023-03-17T22:22:59.790Z,100387.56
2023-03-17T22:25:26.650Z,100393.91
2023-03-17T22:27:53.678Z,100382.22
2023-03-17T22:30:21.189Z,100381.81
2023-03-17T22:32:50.996Z,100380.38
2023-03-17T22:35:23.267Z,100391.72
2023-03-17T22:37:52.343Z,100381.22
2023-03-17T22:40:22.499Z,100389.91
2023-03-17T22:42:51.833Z,100380.97
2023-03-17T22:45:21.266Z,100381.53
2023-03-17T22:47:48.657Z,100375.09
2023-03-17T22:50:16.237Z,100384.19
2023-03-17T22:52:48.040Z,100387.03
2023-03-17T22:55:19.983Z,100388.06
2023-03-17T22:57:47.293Z,100385.16
2023-03-17T23:00:17.231Z,100374.59
2023-03-17T23:02:46.611Z,100362.66
2023-03-17T23:05:14.586Z,100363.53
2023-03-17T23:07:50.423Z,100370.66
2023-03-17T23:10:23.064Z,100368.09
2023-03-17T23:12:55.343Z,100387.38
2023-03-17T23:15:25.004Z,100394.34
2023-03-17T23:17:51.933Z,100412.44
2023-03-17T23:20:19.143Z,100414.63
2023-03-17T23:22:49.012Z,100407.09
2023-03-17T23:25:16.232Z,100400.22
2023-03-17T23:27:46.748Z,100405.00
2023-03-17T23:30:15.237Z,100398.63
2023-03-17T23:32:42.867Z,100409.88
2023-03-17T23:35:15.758Z,100399.72
2023-03-17T23:37:44.927Z,100397.69
2023-03-17T23:40:17.201Z,100403.97
2023-03-17T23:42:49.096Z,100410.66
2023-03-17T23:45:18.077Z,100393.81
2023-03-17T23:47:46.675Z,100395.00
2023-03-17T23:50:15.693Z,100398.88
2023-03-17T23:52:43.471Z,100397.09
2023-03-17T23:55:14.467Z,100401.13
2023-03-17T23:57:42.008Z,100397.53
